sensor_id;sensor_type;location;lat;lon;timestamp;pressure;altitude;pressure_sealevel;temperature;humidity
46087;BME280;31824;49.648;8.640;2024-03-23T00:54:01;74068.56;;;-146.75;100.00
46087;BME280;31824;49.648;8.640;2024-03-23T00:57:04;74066.56;;;-146.75;100.00
46087;BME280;31824;49.648;8.640;2024-03-23T01:00:05;74058.56;;;-146.75;100.00
46087;BME280;31824;49.648;8.640;2024-03-23T01:06:00;74022.59;;;-146.75;100.00
46087;BME280;31824;49.648;8.640;2024-03-23T01:09:01;73992.63;;;-146.75;100.00
46087;BME280;31824;49.648;8.640;2024-03-23T01:12:03;73978.66;;;-146.75;100.00
46087;BME280;31824;49.648;8.640;2024-03-23T01:15:04;73976.66;;;-146.75;100.00
46087;BME280;31824;49.648;8.640;2024-03-23T01:20:58;73962.66;;;-146.75;100.00
46087;BME280;31824;49.648;8.640;2024-03-23T01:23:59;73954.69;;;-146.75;100.00
46087;BME280;31824;49.648;8.640;2024-03-23T01:27:00;73946.69;;;-146.75;100.00
46087;BME280;31824;49.648;8.640;2024-03-23T01:30:01;73946.69;;;-146.75;100.00
46087;BME280;31824;49.648;8.640;2024-03-23T01:35:57;73940.69;;;-146.75;100.00
46087;BME280;31824;49.648;8.640;2024-03-23T01:38:59;73946.69;;;-146.75;100.00
46087;BME280;31824;49.648;8.640;2024-03-23T01:41:59;73962.66;;;-146.75;100.00
46087;BME280;31824;49.648;8.640;2024-03-23T01:45:00;73974.66;;;-146.75;100.00
46087;BME280;31824;49.648;8.640;2024-03-23T01:50:58;73996.63;;;-146.75;100.00
46087;BME280;31824;49.648;8.640;2024-03-23T01:54:03;74014.63;;;-146.75;100.00
46087;BME280;31824;49.648;8.640;2024-03-23T01:57:04;74022.59;;;-146.75;100.00
46087;BME280;31824;49.648;8.640;2024-03-23T02:00:06;74026.59;;;-146.75;100.00
46087;BME280;31824;49.648;8.640;2024-03-23T02:05:57;74026.59;;;-146.75;100.00
46087;BME280;31824;49.648;8.640;2024-03-23T02:08:59;74032.59;;;-146.75;100.00
46087;BME280;31824;49.648;8.640;2024-03-23T02:12:01;74034.59;;;-146.75;100.00
46087;BME280;31824;49.648;8.640;2024-03-23T02:15:03;74048.56;;;-146.75;100.00
46087;BME280;31824;49.648;8.640;2024-03-23T02:20:58;74046.59;;;-146.75;100.00
46087;BME280;31824;49.648;8.640;2024-03-23T02:24:00;74052.56;;;-146.75;100.00
46087;BME280;31824;49.648;8.640;2024-03-23T02:27:02;74054.56;;;-146.75;100.00
46087;BME280;31824;49.648;8.640;2024-03-23T02:30:03;74058.56;;;-146.75;100.00
46087;BME280;31824;49.648;8.640;2024-03-23T02:35:57;74068.56;;;-146.75;100.00
46087;BME280;31824;49.648;8.640;2024-03-23T02:38:58;74068.56;;;-146.75;100.00
46087;BME280;31824;49.648;8.640;2024-03-23T02:41:59;74074.56;;;-146.75;100.00
46087;BME280;31824;49.648;8.640;2024-03-23T02:45:02;74078.53;;;-146.75;100.00
46087;BME280;31824;49.648;8.640;2024-03-23T02:50:57;74074.56;;;-146.75;100.00
46087;BME280;31824;49.648;8.640;2024-03-23T02:53:58;74084.53;;;-146.75;100.00
46087;BME280;31824;49.648;8.640;2024-03-23T02:56:59;74066.56;;;-146.75;100.00
46087;BME280;31824;49.648;8.640;2024-03-23T03:00:00;74066.56;;;-146.75;100.00
46087;BME280;31824;49.648;8.640;2024-03-23T03:05:57;74072.56;;;-146.75;100.00
46087;BME280;31824;49.648;8.640;2024-03-23T03:08:58;74084.53;;;-146.75;100.00
46087;BME280;31824;49.648;8.640;2024-03-23T03:11:59;74086.53;;;-146.75;100.00
46087;BME280;31824;49.648;8.640;2024-03-23T03:15:00;74090.53;;;-146.75;100.00
46087;BME280;31824;49.648;8.640;2024-03-23T03:20:57;74078.53;;;-146.75;100.00
46087;BME280;31824;49.648;8.640;2024-03-23T03:23:58;74082.53;;;-146.75;100.00
46087;BME280;31824;49.648;8.640;2024-03-23T03:26:59;74064.56;;;-146.75;100.00
46087;BME280;31824;49.648;8.640;2024-03-23T03:30:00;74060.56;;;-146.75;100.00
46087;BME280;31824;49.648;8.640;2024-03-23T03:35:58;74048.56;;;-146.75;100.00
46087;BME280;31824;49.648;8.640;2024-03-23T03:38:58;74050.56;;;-146.75;100.00
46087;BME280;31824;49.648;8.640;2024-03-23T03:41:59;74058.56;;;-146.75;100.00
46087;BME280;31824;49.648;8.640;2024-03-23T03:45:02;74050.56;;;-146.75;100.00
46087;BME280;31824;49.648;8.640;2024-03-23T03:50:57;74056.56;;;-146.75;100.00
46087;BME280;31824;49.648;8.640;2024-03-23T03:53:58;74070.56;;;-146.75;100.00
46087;BME280;31824;49.648;8.640;2024-03-23T03:56:59;74068.56;;;-146.75;100.00
46087;BME280;31824;49.648;8.640;2024-03-23T04:00:00;74070.56;;;-146.75;100.00
46087;BME280;31824;49.648;8.640;2024-03-23T04:05:57;74052.56;;;-146.75;100.00
46087;BME280;31824;49.648;8.640;2024-03-23T04:08:58;74040.59;;;-146.75;100.00
46087;BME280;31824;49.648;8.640;2024-03-23T04:11:59;74038.59;;;-146.75;100.00
46087;BME280;31824;49.648;8.640;2024-03-23T04:15:00;74046.59;;;-146.75;100.00
46087;BME280;31824;49.648;8.640;2024-03-23T04:20:58;74032.59;;;-146.75;100.00
46087;BME280;31824;49.648;8.640;2024-03-23T04:23:59;74040.59;;;-146.75;100.00
46087;BME280;31824;49.648;8.640;2024-03-23T04:27:00;74030.59;;;-146.75;100.00
46087;BME280;31824;49.648;8.640;2024-03-23T04:30:01;74034.59;;;-146.75;100.00
46087;BME280;31824;49.648;8.640;2024-03-23T04:35:58;74042.59;;;-146.75;100.00
46087;BME280;31824;49.648;8.640;2024-03-23T04:38:59;74026.59;;;-146.75;100.00
46087;BME280;31824;49.648;8.640;2024-03-23T04:42:00;74034.59;;;-146.75;100.00
46087;BME280;31824;49.648;8.640;2024-03-23T04:45:02;74038.59;;;-146.75;100.00
46087;BME280;31824;49.648;8.640;2024-03-23T04:50:57;74064.56;;;-146.75;100.00
46087;BME280;31824;49.648;8.640;2024-03-23T04:53:58;74070.56;;;-146.75;100.00
46087;BME280;31824;49.648;8.640;2024-03-23T04:56:59;74112.50;;;-146.75;100.00
46087;BME280;31824;49.648;8.640;2024-03-23T05:00:01;74136.47;;;-146.75;100.00
46087;BME280;31824;49.648;8.640;2024-03-23T05:05:57;74146.47;;;-146.75;100.00
46087;BME280;31824;49.648;8.640;2024-03-23T05:08:59;74298.31;;;-146.75;100.00
46087;BME280;31824;49.648;8.640;2024-03-23T05:11:59;74492.13;;;-146.75;100.00
46087;BME280;31824;49.648;8.640;2024-03-23T05:15:06;74576.06;;;-146.75;100.00
46087;BME280;31824;49.648;8.640;2024-03-23T05:20:58;74650.00;;;-146.75;100.00
46087;BME280;31824;49.648;8.640;2024-03-23T05:23:59;74695.94;;;-146.75;100.00
46087;BME280;31824;49.648;8.640;2024-03-23T05:27:00;74709.94;;;-146.75;100.00
46087;BME280;31824;49.648;8.640;2024-03-23T05:30:01;74737.91;;;-146.75;100.00
46087;BME280;31824;49.648;8.640;2024-03-23T05:35:58;74771.88;;;-146.75;100.00
46087;BME280;31824;49.648;8.640;2024-03-23T05:38:59;74757.91;;;-146.75;100.00
46087;BME280;31824;49.648;8.640;2024-03-23T05:42:00;74743.91;;;-146.75;100.00
46087;BME280;31824;49.648;8.640;2024-03-23T05:45:01;74729.94;;;-146.75;100.00
46087;BME280;31824;49.648;8.640;2024-03-23T05:50:58;74729.94;;;-146.75;100.00
46087;BME280;31824;49.648;8.640;2024-03-23T05:53:59;74723.94;;;-146.75;100.00
46087;BME280;31824;49.648;8.640;2024-03-23T05:57:01;74755.91;;;-146.75;100.00
46087;BME280;31824;49.648;8.640;2024-03-23T06:00:03;74771.88;;;-146.75;100.00
46087;BME280;31824;49.648;8.640;2024-03-23T06:05:57;74787.88;;;-146.75;100.00
46087;BME280;31824;49.648;8.640;2024-03-23T06:08:58;74791.88;;;-146.75;100.00
46087;BME280;31824;49.648;8.640;2024-03-23T06:11:59;74801.88;;;-146.75;100.00
46087;BME280;31824;49.648;8.640;2024-03-23T06:15:00;74813.84;;;-146.75;100.00
46087;BME280;31824;49.648;8.640;2024-03-23T06:20:57;74815.84;;;-146.75;100.00
46087;BME280;31824;49.648;8.640;2024-03-23T06:23:58;74827.84;;;-146.75;100.00
46087;BME280;31824;49.648;8.640;2024-03-23T06:26:59;74843.84;;;-146.75;100.00
46087;BME280;31824;49.648;8.640;2024-03-23T06:30:00;74839.84;;;-146.75;100.00
46087;BME280;31824;49.648;8.640;2024-03-23T06:35:57;74829.84;;;-146.75;100.00
46087;BME280;31824;49.648;8.640;2024-03-23T06:38:58;74837.84;;;-146.75;100.00
46087;BME280;31824;49.648;8.640;2024-03-23T06:41:59;74829.84;;;-146.75;100.00
46087;BME280;31824;49.648;8.640;2024-03-23T06:45:00;74845.81;;;-146.75;100.00
46087;BME280;31824;49.648;8.640;2024-03-23T06:50:57;74849.81;;;-146.75;100.00
46087;BME280;31824;49.648;8.640;2024-03-23T06:53:58;74857.81;;;-146.75;100.00
46087;BME280;31824;49.648;8.640;2024-03-23T06:56:59;74873.81;;;-146.75;100.00
46087;BME280;31824;49.648;8.640;2024-03-23T07:00:00;74865.81;;;-146.75;100.00
46087;BME280;31824;49.648;8.640;2024-03-23T07:05:59;74881.81;;;-146.75;100.00
46087;BME280;31824;49.648;8.640;2024-03-23T07:08:59;74867.81;;;-146.75;100.00
46087;BME280;31824;49.648;8.640;2024-03-23T07:12:00;74901.78;;;-146.75;100.00
46087;BME280;31824;49.648;8.640;2024-03-23T07:15:01;74913.78;;;-146.75;100.00
46087;BME280;31824;49.648;8.640;2024-03-23T07:20:57;74967.72;;;-146.75;100.00
46087;BME280;31824;49.648;8.640;2024-03-23T07:23:58;74975.72;;;-146.75;100.00
46087;BME280;31824;49.648;8.640;2024-03-23T07:26:59;74987.72;;;-146.75;100.00
46087;BME280;31824;49.648;8.640;2024-03-23T07:30:00;75019.69;;;-146.75;100.00
46087;BME280;31824;49.648;8.640;2024-03-23T07:35:57;74997.72;;;-146.75;100.00
46087;BME280;31824;49.648;8.640;2024-03-23T07:39:00;75025.69;;;-146.75;100.00
46087;BME280;31824;49.648;8.640;2024-03-23T07:42:01;75043.66;;;-146.75;100.00
46087;BME280;31824;49.648;8.640;2024-03-23T07:45:02;75051.66;;;-146.75;100.00
46087;BME280;31824;49.648;8.640;2024-03-23T07:51:01;75065.66;;;-146.75;100.00
46087;BME280;31824;49.648;8.640;2024-03-23T07:54:03;75081.63;;;-146.75;100.00
46087;BME280;31824;49.648;8.640;2024-03-23T07:57:04;75083.63;;;-146.75;100.00
46087;BME280;31824;49.648;8.640;2024-03-23T08:00:06;75075.66;;;-146.75;100.00
46087;BME280;31824;49.648;8.640;2024-03-23T08:05:57;75023.69;;;-146.75;100.00
46087;BME280;31824;49.648;8.640;2024-03-23T08:08:58;75037.69;;;-146.75;100.00
46087;BME280;31824;49.648;8.640;2024-03-23T08:12:02;75057.66;;;-146.75;100.00
46087;BME280;31824;49.648;8.640;2024-03-23T08:15:03;75043.66;;;-146.75;100.00
46087;BME280;31824;49.648;8.640;2024-03-23T08:20:58;75059.66;;;-146.75;100.00
46087;BME280;31824;49.648;8.640;2024-03-23T08:23:59;75055.66;;;-146.75;100.00
46087;BME280;31824;49.648;8.640;2024-03-23T08:27:00;75079.66;;;-146.75;100.00
46087;BME280;31824;49.648;8.640;2024-03-23T08:30:02;75067.66;;;-146.75;100.00
46087;BME280;31824;49.648;8.640;2024-03-23T08:35:58;75061.66;;;-146.75;100.00
46087;BME280;31824;49.648;8.640;2024-03-23T08:38:59;75035.69;;;-146.75;100.00
46087;BME280;31824;49.648;8.640;2024-03-23T08:42:00;75023.69;;;-146.75;100.00
46087;BME280;31824;49.648;8.640;2024-03-23T08:45:01;74981.72;;;-146.75;100.00
46087;BME280;31824;49.648;8.640;2024-03-23T08:51:00;74801.88;;;-146.75;100.00
46087;BME280;31824;49.648;8.640;2024-03-23T08:54:01;74871.81;;;-146.75;100.00
46087;BME280;31824;49.648;8.640;2024-03-23T08:57:03;74897.78;;;-146.75;100.00
46087;BME280;31824;49.648;8.640;2024-03-23T09:00:05;74937.75;;;-146.75;100.00
46087;BME280;31824;49.648;8.640;2024-03-23T09:05:59;74905.78;;;-146.75;100.00
46087;BME280;31824;49.648;8.640;2024-03-23T09:09:00;74897.78;;;-146.75;100.00
46087;BME280;31824;49.648;8.640;2024-03-23T09:12:01;74877.81;;;-146.75;100.00
46087;BME280;31824;49.648;8.640;2024-03-23T09:15:02;74845.81;;;-146.75;100.00
46087;BME280;31824;49.648;8.640;2024-03-23T09:20:58;74887.78;;;-146.75;100.00
46087;BME280;31824;49.648;8.640;2024-03-23T09:23:59;74901.78;;;-146.75;100.00
46087;BME280;31824;49.648;8.640;2024-03-23T09:27:00;74859.81;;;-146.75;100.00
46087;BME280;31824;49.648;8.640;2024-03-23T09:30:01;74829.84;;;-146.75;100.00
46087;BME280;31824;49.648;8.640;2024-03-23T09:35:57;74795.88;;;-146.75;100.00
46087;BME280;31824;49.648;8.640;2024-03-23T09:38:58;74813.84;;;-146.75;100.00
46087;BME280;31824;49.648;8.640;2024-03-23T09:41:59;74785.88;;;-146.75;100.00
46087;BME280;31824;49.648;8.640;2024-03-23T09:45:00;74761.91;;;-146.75;100.00
46087;BME280;31824;49.648;8.640;2024-03-23T09:50:57;74825.84;;;-146.75;100.00
46087;BME280;31824;49.648;8.640;2024-03-23T09:53:58;74845.81;;;-146.75;100.00
46087;BME280;31824;49.648;8.640;2024-03-23T09:56:59;74829.84;;;-146.75;100.00
46087;BME280;31824;49.648;8.640;2024-03-23T10:00:00;74825.84;;;-146.75;100.00
46087;BME280;31824;49.648;8.640;2024-03-23T10:06:02;74797.88;;;-146.75;100.00
46087;BME280;31824;49.648;8.640;2024-03-23T10:09:16;74817.84;;;-146.75;100.00
46087;BME280;31824;49.648;8.640;2024-03-23T10:12:19;74757.91;;;-146.75;100.00
46087;BME280;31824;49.648;8.640;2024-03-23T10:15:22;74717.94;;;-146.75;100.00
46087;BME280;31824;49.648;8.640;2024-03-23T10:21:08;74701.94;;;-146.75;100.00
46087;BME280;31824;49.648;8.640;2024-03-23T10:24:10;74737.91;;;-146.75;100.00
46087;BME280;31824;49.648;8.640;2024-03-23T10:27:15;74757.91;;;-146.75;100.00
46087;BME280;31824;49.648;8.640;2024-03-23T10:30:16;74777.88;;;-146.75;100.00
46087;BME280;31824;49.648;8.640;2024-03-23T10:35:58;74729.94;;;-146.75;100.00
46087;BME280;31824;49.648;8.640;2024-03-23T10:38:59;74729.94;;;-146.75;100.00
46087;BME280;31824;49.648;8.640;2024-03-23T10:42:02;74719.94;;;-146.75;100.00
46087;BME280;31824;49.648;8.640;2024-03-23T10:45:04;74598.03;;;-146.75;100.00
46087;BME280;31824;49.648;8.640;2024-03-23T10:51:00;74628.00;;;-146.75;100.00
46087;BME280;31824;49.648;8.640;2024-03-23T10:54:04;74630.00;;;-146.75;99.26
46087;BME280;31824;49.648;8.640;2024-03-23T10:57:09;74691.97;;;-146.75;99.10
46087;BME280;31824;49.648;8.640;2024-03-23T11:00:12;74650.00;;;-146.75;98.19
46087;BME280;31824;49.648;8.640;2024-03-23T11:05:58;74566.06;;;-146.75;100.00
46087;BME280;31824;49.648;8.640;2024-03-23T11:08:59;74632.00;;;-146.75;100.00
46087;BME280;31824;49.648;8.640;2024-03-23T11:12:17;74640.00;;;-146.75;100.00
46087;BME280;31824;49.648;8.640;2024-03-23T11:15:25;74642.00;;;-146.75;98.93
46087;BME280;31824;49.648;8.640;2024-03-23T11:20:57;74949.75;;;-146.75;100.00
46087;BME280;31824;49.648;8.640;2024-03-23T11:24:13;75141.59;;;-146.75;100.00
46087;BME280;31824;49.648;8.640;2024-03-23T11:27:15;75131.59;;;-146.75;100.00
46087;BME280;31824;49.648;8.640;2024-03-23T11:30:17;75131.59;;;-146.75;100.00
46087;BME280;31824;49.648;8.640;2024-03-23T11:35:57;75089.63;;;-146.75;100.00
46087;BME280;31824;49.648;8.640;2024-03-23T11:38:58;75059.66;;;-146.75;100.00
46087;BME280;31824;49.648;8.640;2024-03-23T11:42:03;75061.66;;;-146.75;100.00
46087;BME280;31824;49.648;8.640;2024-03-23T11:45:07;75069.66;;;-146.75;100.00
46087;BME280;31824;49.648;8.640;2024-03-23T11:50:57;75047.66;;;-146.75;100.00
46087;BME280;31824;49.648;8.640;2024-03-23T11:54:07;75005.69;;;-146.75;100.00
46087;BME280;31824;49.648;8.640;2024-03-23T11:57:08;75035.69;;;-146.75;100.00
46087;BME280;31824;49.648;8.640;2024-03-23T12:00:22;75001.69;;;-146.75;100.00
46087;BME280;31824;49.648;8.640;2024-03-23T12:06:09;74917.78;;;-146.75;100.00
46087;BME280;31824;49.648;8.640;2024-03-23T12:09:10;74909.78;;;-146.75;100.00
46087;BME280;31824;49.648;8.640;2024-03-23T12:12:14;74881.81;;;-146.75;100.00
46087;BME280;31824;49.648;8.640;2024-03-23T12:15:18;74929.75;;;-146.75;100.00
46087;BME280;31824;49.648;8.640;2024-03-23T12:20:57;74927.75;;;-146.75;100.00
46087;BME280;31824;49.648;8.640;2024-03-23T12:23:58;74927.75;;;-146.75;100.00
46087;BME280;31824;49.648;8.640;2024-03-23T12:27:00;74929.75;;;-146.75;100.00
46087;BME280;31824;49.648;8.640;2024-03-23T12:30:01;74893.78;;;-146.75;100.00
46087;BME280;31824;49.648;8.640;2024-03-23T12:35:57;74931.75;;;-146.75;100.00
46087;BME280;31824;49.648;8.640;2024-03-23T12:38:58;74945.75;;;-146.75;100.00
46087;BME280;31824;49.648;8.640;2024-03-23T12:42:00;74971.72;;;-146.75;100.00
46087;BME280;31824;49.648;8.640;2024-03-23T12:45:01;74949.75;;;-146.75;100.00
46087;BME280;31824;49.648;8.640;2024-03-23T12:50:57;74869.81;;;-146.75;100.00
46087;BME280;31824;49.648;8.640;2024-03-23T12:53:58;74933.75;;;-146.75;100.00
46087;BME280;31824;49.648;8.640;2024-03-23T12:56:59;74937.75;;;-146.75;100.00
46087;BME280;31824;49.648;8.640;2024-03-23T13:00:01;74931.75;;;-146.75;100.00
46087;BME280;31824;49.648;8.640;2024-03-23T13:05:57;74939.75;;;-146.75;100.00
46087;BME280;31824;49.648;8.640;2024-03-23T13:08:58;74955.75;;;-146.75;100.00
46087;BME280;31824;49.648;8.640;2024-03-23T13:11:59;74955.75;;;-146.75;100.00
46087;BME280;31824;49.648;8.640;2024-03-23T13:15:00;74931.75;;;-146.75;100.00
46087;BME280;31824;49.648;8.640;2024-03-23T13:20:59;74929.75;;;-146.75;100.00
46087;BME280;31824;49.648;8.640;2024-03-23T13:24:00;74861.81;;;-146.75;100.00
46087;BME280;31824;49.648;8.640;2024-03-23T13:27:01;74845.81;;;-146.75;100.00
46087;BME280;31824;49.648;8.640;2024-03-23T13:30:02;74865.81;;;-146.75;100.00
46087;BME280;31824;49.648;8.640;2024-03-23T13:35:58;74757.91;;;-146.75;100.00
46087;BME280;31824;49.648;8.640;2024-03-23T13:38:59;74729.94;;;-146.75;100.00
46087;BME280;31824;49.648;8.640;2024-03-23T13:42:00;74652.00;;;-146.75;100.00
46087;BME280;31824;49.648;8.640;2024-03-23T13:45:01;74614.03;;;-146.75;100.00
46087;BME280;31824;49.648;8.640;2024-03-23T13:51:01;74677.97;;;-146.75;100.00
46087;BME280;31824;49.648;8.640;2024-03-23T13:54:02;74628.00;;;-146.75;100.00
46087;BME280;31824;49.648;8.640;2024-03-23T13:57:04;74677.97;;;-146.75;100.00
46087;BME280;31824;49.648;8.640;2024-03-23T14:00:07;74721.94;;;-146.75;100.00
46087;BME280;31824;49.648;8.640;2024-03-23T14:05:59;74717.94;;;-146.75;100.00
46087;BME280;31824;49.648;8.640;2024-03-23T14:09:02;74735.91;;;-146.75;100.00
46087;BME280;31824;49.648;8.640;2024-03-23T14:12:04;74723.94;;;-146.75;100.00
46087;BME280;31824;49.648;8.640;2024-03-23T14:15:07;74761.91;;;-146.75;100.00
46087;BME280;31824;49.648;8.640;2024-03-23T14:20:58;74705.94;;;-146.75;100.00
46087;BME280;31824;49.648;8.640;2024-03-23T14:23:59;74715.94;;;-146.75;100.00
46087;BME280;31824;49.648;8.640;2024-03-23T14:27:01;74733.91;;;-146.75;100.00
46087;BME280;31824;49.648;8.640;2024-03-23T14:30:06;74713.94;;;-146.75;100.00
46087;BME280;31824;49.648;8.640;2024-03-23T14:35:58;74731.91;;;-146.75;100.00
46087;BME280;31824;49.648;8.640;2024-03-23T14:38:59;74781.88;;;-146.75;100.00
46087;BME280;31824;49.648;8.640;2024-03-23T14:41:59;74787.88;;;-146.75;100.00
46087;BME280;31824;49.648;8.640;2024-03-23T14:45:00;74799.88;;;-146.75;100.00
46087;BME280;31824;49.648;8.640;2024-03-23T14:50:58;74779.88;;;-146.75;100.00
46087;BME280;31824;49.648;8.640;2024-03-23T14:54:00;74769.88;;;-146.75;100.00
46087;BME280;31824;49.648;8.640;2024-03-23T14:57:00;74755.91;;;-146.75;100.00
46087;BME280;31824;49.648;8.640;2024-03-23T15:00:01;74761.91;;;-146.75;100.00
46087;BME280;31824;49.648;8.640;2024-03-23T15:05:58;74785.88;;;-146.75;100.00
46087;BME280;31824;49.648;8.640;2024-03-23T15:09:00;74859.81;;;-146.75;100.00
46087;BME280;31824;49.648;8.640;2024-03-23T15:12:01;74849.81;;;-146.75;100.00
46087;BME280;31824;49.648;8.640;2024-03-23T15:15:02;74865.81;;;-146.75;100.00
46087;BME280;31824;49.648;8.640;2024-03-23T15:20:58;74873.81;;;-146.75;100.00
46087;BME280;31824;49.648;8.640;2024-03-23T15:24:03;74913.78;;;-146.75;100.00
46087;BME280;31824;49.648;8.640;2024-03-23T15:27:04;74977.72;;;-146.75;100.00
46087;BME280;31824;49.648;8.640;2024-03-23T15:30:07;74997.72;;;-146.75;100.00
46087;BME280;31824;49.648;8.640;2024-03-23T15:35:59;75073.66;;;-146.75;100.00
46087;BME280;31824;49.648;8.640;2024-03-23T15:39:00;74933.75;;;-146.75;100.00
46087;BME280;31824;49.648;8.640;2024-03-23T15:42:01;75005.69;;;-146.75;100.00
46087;BME280;31824;49.648;8.640;2024-03-23T15:45:02;75013.69;;;-146.75;100.00
46087;BME280;31824;49.648;8.640;2024-03-23T15:50:59;75049.66;;;-146.75;100.00
46087;BME280;31824;49.648;8.640;2024-03-23T15:54:00;75043.66;;;-146.75;100.00
46087;BME280;31824;49.648;8.640;2024-03-23T15:57:01;74959.75;;;-146.75;100.00
46087;BME280;31824;49.648;8.640;2024-03-23T16:00:04;74955.75;;;-146.75;100.00
46087;BME280;31824;49.648;8.640;2024-03-23T16:05:58;74813.84;;;-146.75;100.00
46087;BME280;31824;49.648;8.640;2024-03-23T16:08:59;74795.88;;;-146.75;100.00
46087;BME280;31824;49.648;8.640;2024-03-23T16:12:00;74755.91;;;-146.75;100.00
46087;BME280;31824;49.648;8.640;2024-03-23T16:15:01;74801.88;;;-146.75;100.00
46087;BME280;31824;49.648;8.640;2024-03-23T16:20:58;74837.84;;;-146.75;100.00
46087;BME280;31824;49.648;8.640;2024-03-23T16:23:59;74913.78;;;-146.75;100.00
46087;BME280;31824;49.648;8.640;2024-03-23T16:27:00;74919.78;;;-146.75;100.00
46087;BME280;31824;49.648;8.640;2024-03-23T16:30:01;74945.75;;;-146.75;100.00
46087;BME280;31824;49.648;8.640;2024-03-23T16:35:59;74959.75;;;-146.75;100.00
46087;BME280;31824;49.648;8.640;2024-03-23T16:39:00;74953.75;;;-146.75;100.00
46087;BME280;31824;49.648;8.640;2024-03-23T16:42:01;74957.75;;;-146.75;100.00
46087;BME280;31824;49.648;8.640;2024-03-23T16:45:02;74977.72;;;-146.75;100.00
46087;BME280;31824;49.648;8.640;2024-03-23T16:50:58;74999.72;;;-146.75;100.00
46087;BME280;31824;49.648;8.640;2024-03-23T16:54:00;75009.69;;;-146.75;100.00
46087;BME280;31824;49.648;8.640;2024-03-23T16:57:01;75003.69;;;-146.75;100.00
46087;BME280;31824;49.648;8.640;2024-03-23T17:00:02;75027.69;;;-146.75;100.00
46087;BME280;31824;49.648;8.640;2024-03-23T17:05:57;75041.66;;;-146.75;100.00
46087;BME280;31824;49.648;8.640;2024-03-23T17:08:58;75061.66;;;-146.75;100.00
46087;BME280;31824;49.648;8.640;2024-03-23T17:12:01;75073.66;;;-146.75;100.00
46087;BME280;31824;49.648;8.640;2024-03-23T17:15:04;75085.63;;;-146.75;100.00
46087;BME280;31824;49.648;8.640;2024-03-23T17:20:57;75081.63;;;-146.75;100.00
46087;BME280;31824;49.648;8.640;2024-03-23T17:23:58;75083.63;;;-146.75;100.00
46087;BME280;31824;49.648;8.640;2024-03-23T17:26:59;75079.66;;;-146.75;100.00
46087;BME280;31824;49.648;8.640;2024-03-23T17:30:00;75075.66;;;-146.75;100.00
46087;BME280;31824;49.648;8.640;2024-03-23T17:35:57;75061.66;;;-146.75;100.00
46087;BME280;31824;49.648;8.640;2024-03-23T17:38:58;75061.66;;;-146.75;100.00
46087;BME280;31824;49.648;8.640;2024-03-23T17:41:59;75063.66;;;-146.75;100.00
46087;BME280;31824;49.648;8.640;2024-03-23T17:45:00;75079.66;;;-146.75;100.00
46087;BME280;31824;49.648;8.640;2024-03-23T17:51:04;75087.63;;;-146.75;100.00
46087;BME280;31824;49.648;8.640;2024-03-23T17:54:05;75077.66;;;-146.75;100.00
46087;BME280;31824;49.648;8.640;2024-03-23T17:57:06;75087.63;;;-146.75;100.00
46087;BME280;31824;49.648;8.640;2024-03-23T18:00:08;75109.63;;;-146.75;100.00
46087;BME280;31824;49.648;8.640;2024-03-23T18:05:58;75105.63;;;-146.75;100.00
46087;BME280;31824;49.648;8.640;2024-03-23T18:09:02;75117.63;;;-146.75;100.00
46087;BME280;31824;49.648;8.640;2024-03-23T18:12:04;75127.59;;;-146.75;100.00
46087;BME280;31824;49.648;8.640;2024-03-23T18:15:06;75125.59;;;-146.75;100.00
46087;BME280;31824;49.648;8.640;2024-03-23T18:21:00;75157.59;;;-146.75;100.00
46087;BME280;31824;49.648;8.640;2024-03-23T18:24:01;75169.56;;;-146.75;100.00
46087;BME280;31824;49.648;8.640;2024-03-23T18:27:02;75181.56;;;-146.75;100.00
46087;BME280;31824;49.648;8.640;2024-03-23T18:30:04;75179.56;;;-146.75;100.00
46087;BME280;31824;49.648;8.640;2024-03-23T18:35:58;75201.56;;;-146.75;100.00
46087;BME280;31824;49.648;8.640;2024-03-23T18:38:59;75211.53;;;-146.75;100.00
46087;BME280;31824;49.648;8.640;2024-03-23T18:42:03;75215.53;;;-146.75;100.00
46087;BME280;31824;49.648;8.640;2024-03-23T18:45:09;75221.53;;;-146.75;100.00
46087;BME280;31824;49.648;8.640;2024-03-23T18:51:01;75231.53;;;-146.75;100.00
46087;BME280;31824;49.648;8.640;2024-03-23T18:54:03;75223.53;;;-146.75;100.00
46087;BME280;31824;49.648;8.640;2024-03-23T18:57:03;75231.53;;;-146.75;100.00
46087;BME280;31824;49.648;8.640;2024-03-23T19:00:06;75231.53;;;-146.75;100.00
46087;BME280;31824;49.648;8.640;2024-03-23T19:05:59;75243.53;;;-146.75;100.00
46087;BME280;31824;49.648;8.640;2024-03-23T19:09:01;75259.50;;;-146.75;100.00
46087;BME280;31824;49.648;8.640;2024-03-23T19:12:02;75263.50;;;-146.75;100.00
46087;BME280;31824;49.648;8.640;2024-03-23T19:15:03;75247.53;;;-146.75;100.00
46087;BME280;31824;49.648;8.640;2024-03-23T19:20:58;75273.50;;;-146.75;100.00
46087;BME280;31824;49.648;8.640;2024-03-23T19:23:59;75297.47;;;-146.75;100.00
46087;BME280;31824;49.648;8.640;2024-03-23T19:27:00;75301.47;;;-146.75;100.00
46087;BME280;31824;49.648;8.640;2024-03-23T19:30:01;75301.47;;;-146.75;100.00
46087;BME280;31824;49.648;8.640;2024-03-23T19:35:57;75293.50;;;-146.75;100.00
46087;BME280;31824;49.648;8.640;2024-03-23T19:38:58;75301.47;;;-146.75;100.00
46087;BME280;31824;49.648;8.640;2024-03-23T19:41:59;75273.50;;;-146.75;100.00
46087;BME280;31824;49.648;8.640;2024-03-23T19:45:00;75291.50;;;-146.75;100.00
46087;BME280;31824;49.648;8.640;2024-03-23T19:50:58;75291.50;;;-146.75;100.00
46087;BME280;31824;49.648;8.640;2024-03-23T19:53:59;75299.47;;;-146.75;100.00
46087;BME280;31824;49.648;8.640;2024-03-23T19:57:00;75301.47;;;-146.75;100.00